sensor_id;sensor_type;location;lat;lon;timestamp;temperature;humidity
18868;DHT22;9563;49.240;9.088;2023-03-21T00:01:46;10.20;99.90
18868;DHT22;9563;49.240;9.088;2023-03-21T00:04:14;10.20;99.90
18868;DHT22;9563;49.240;9.088;2023-03-21T00:06:42;10.20;99.90
18868;DHT22;9563;49.240;9.088;2023-03-21T00:09:09;10.20;99.90
18868;DHT22;9563;49.240;9.088;2023-03-21T00:11:38;10.20;99.90
18868;DHT22;9563;49.240;9.088;2023-03-21T00:14:04;10.20;99.90
18868;DHT22;9563;49.240;9.088;2023-03-21T00:16:33;10.10;99.90
18868;DHT22;9563;49.240;9.088;2023-03-21T00:19:00;10.20;99.90
18868;DHT22;9563;49.240;9.088;2023-03-21T00:21:31;10.10;99.90
18868;DHT22;9563;49.240;9.088;2023-03-21T00:24:03;10.10;99.90
18868;DHT22;9563;49.240;9.088;2023-03-21T00:26:31;10.10;99.90
18868;DHT22;9563;49.240;9.088;2023-03-21T00:28:59;10.10;99.90
18868;DHT22;9563;49.240;9.088;2023-03-21T00:31:26;10.10;99.90
18868;DHT22;9563;49.240;9.088;2023-03-21T00:33:52;10.20;99.90
18868;DHT22;9563;49.240;9.088;2023-03-21T00:36:19;10.20;99.90
18868;DHT22;9563;49.240;9.088;2023-03-21T00:38:50;10.20;99.90
18868;DHT22;9563;49.240;9.088;2023-03-21T00:41:17;10.10;99.90
18868;DHT22;9563;49.240;9.088;2023-03-21T00:43:44;10.10;99.90
18868;DHT22;9563;49.240;9.088;2023-03-21T00:46:13;10.10;99.90
18868;DHT22;9563;49.240;9.088;2023-03-21T00:48:39;10.20;99.90
18868;DHT22;9563;49.240;9.088;2023-03-21T00:51:12;10.20;99.90
18868;DHT22;9563;49.240;9.088;2023-03-21T00:53:41;10.10;99.90
18868;DHT22;9563;49.240;9.088;2023-03-21T00:56:08;10.10;99.90
18868;DHT22;9563;49.240;9.088;2023-03-21T00:58:35;10.10;99.90
18868;DHT22;9563;49.240;9.088;2023-03-21T01:01:03;10.10;99.90
18868;DHT22;9563;49.240;9.088;2023-03-21T01:03:32;10.10;99.90
18868;DHT22;9563;49.240;9.088;2023-03-21T01:06:08;10.10;99.90
18868;DHT22;9563;49.240;9.088;2023-03-21T01:08:39;10.10;99.90
18868;DHT22;9563;49.240;9.088;2023-03-21T01:11:10;10.10;99.90
18868;DHT22;9563;49.240;9.088;2023-03-21T01:13:38;10.10;99.90
18868;DHT22;9563;49.240;9.088;2023-03-21T01:16:06;10.10;99.90
18868;DHT22;9563;49.240;9.088;2023-03-21T01:18:36;10.10;99.90
18868;DHT22;9563;49.240;9.088;2023-03-21T01:21:06;10.10;99.90
18868;DHT22;9563;49.240;9.088;2023-03-21T01:23:34;10.00;99.90
18868;DHT22;9563;49.240;9.088;2023-03-21T01:26:01;10.00;99.90
18868;DHT22;9563;49.240;9.088;2023-03-21T01:28:28;10.00;99.90
18868;DHT22;9563;49.240;9.088;2023-03-21T01:30:56;10.00;99.90
18868;DHT22;9563;49.240;9.088;2023-03-21T01:33:23;10.00;99.90
18868;DHT22;9563;49.240;9.088;2023-03-21T01:35:51;10.00;99.90
18868;DHT22;9563;49.240;9.088;2023-03-21T01:38:18;10.00;99.90
18868;DHT22;9563;49.240;9.088;2023-03-21T01:40:47;10.00;99.90
18868;DHT22;9563;49.240;9.088;2023-03-21T01:43:26;10.00;99.90
18868;DHT22;9563;49.240;9.088;2023-03-21T01:48:52;10.00;99.90
18868;DHT22;9563;49.240;9.088;2023-03-21T01:51:21;10.00;99.90
18868;DHT22;9563;49.240;9.088;2023-03-21T01:53:50;9.90;99.90
18868;DHT22;9563;49.240;9.088;2023-03-21T01:56:19;9.80;99.90
18868;DHT22;9563;49.240;9.088;2023-03-21T01:58:48;9.70;99.90
18868;DHT22;9563;49.240;9.088;2023-03-21T02:01:16;9.60;99.90
18868;DHT22;9563;49.240;9.088;2023-03-21T02:03:45;9.60;99.90
18868;DHT22;9563;49.240;9.088;2023-03-21T02:06:23;9.50;99.90
18868;DHT22;9563;49.240;9.088;2023-03-21T02:08:57;9.50;99.90
18868;DHT22;9563;49.240;9.088;2023-03-21T02:11:25;9.40;99.90
18868;DHT22;9563;49.240;9.088;2023-03-21T02:13:54;9.30;99.90
18868;DHT22;9563;49.240;9.088;2023-03-21T02:16:27;9.40;99.90
18868;DHT22;9563;49.240;9.088;2023-03-21T02:18:58;9.40;99.90
18868;DHT22;9563;49.240;9.088;2023-03-21T02:21:49;9.40;99.90
18868;DHT22;9563;49.240;9.088;2023-03-21T02:27:23;9.50;99.90
18868;DHT22;9563;49.240;9.088;2023-03-21T02:30:19;9.50;99.90
18868;DHT22;9563;49.240;9.088;2023-03-21T02:33:19;9.60;99.90
18868;DHT22;9563;49.240;9.088;2023-03-21T02:36:12;9.60;99.90
18868;DHT22;9563;49.240;9.088;2023-03-21T02:38:46;9.60;99.90
18868;DHT22;9563;49.240;9.088;2023-03-21T02:41:20;9.60;99.90
18868;DHT22;9563;49.240;9.088;2023-03-21T02:43:54;9.60;99.90
18868;DHT22;9563;49.240;9.088;2023-03-21T02:46:25;9.50;99.90
18868;DHT22;9563;49.240;9.088;2023-03-21T02:48:58;9.50;99.90
18868;DHT22;9563;49.240;9.088;2023-03-21T02:51:27;9.60;99.90
18868;DHT22;9563;49.240;9.088;2023-03-21T02:54:00;9.60;99.90
18868;DHT22;9563;49.240;9.088;2023-03-21T02:56:30;9.60;99.90
18868;DHT22;9563;49.240;9.088;2023-03-21T02:58:58;9.60;99.90
18868;DHT22;9563;49.240;9.088;2023-03-21T03:01:26;9.60;99.90
18868;DHT22;9563;49.240;9.088;2023-03-21T03:03:53;9.60;99.90
18868;DHT22;9563;49.240;9.088;2023-03-21T03:06:23;9.60;99.90
18868;DHT22;9563;49.240;9.088;2023-03-21T03:09:04;9.60;99.90
18868;DHT22;9563;49.240;9.088;2023-03-21T03:11:36;9.60;99.90
18868;DHT22;9563;49.240;9.088;2023-03-21T03:14:22;9.60;99.90
18868;DHT22;9563;49.240;9.088;2023-03-21T03:16:58;9.60;99.90
18868;DHT22;9563;49.240;9.088;2023-03-21T03:19:31;9.60;99.90
18868;DHT22;9563;49.240;9.088;2023-03-21T03:22:02;9.60;99.90
18868;DHT22;9563;49.240;9.088;2023-03-21T03:24:38;9.60;99.90
18868;DHT22;9563;49.240;9.088;2023-03-21T03:27:10;9.60;99.90
18868;DHT22;9563;49.240;9.088;2023-03-21T03:29:41;9.60;99.90
18868;DHT22;9563;49.240;9.088;2023-03-21T03:32:12;9.60;99.90
18868;DHT22;9563;49.240;9.088;2023-03-21T03:34:43;9.60;99.90
18868;DHT22;9563;49.240;9.088;2023-03-21T03:37:16;9.60;99.90
18868;DHT22;9563;49.240;9.088;2023-03-21T03:39:50;9.60;99.90
18868;DHT22;9563;49.240;9.088;2023-03-21T03:42:19;9.60;99.90
18868;DHT22;9563;49.240;9.088;2023-03-21T03:44:48;9.60;99.90
18868;DHT22;9563;49.240;9.088;2023-03-21T03:47:19;9.60;99.90
18868;DHT22;9563;49.240;9.088;2023-03-21T03:49:51;9.60;99.90
18868;DHT22;9563;49.240;9.088;2023-03-21T03:52:23;9.60;99.90
18868;DHT22;9563;49.240;9.088;2023-03-21T03:54:54;9.50;99.90
18868;DHT22;9563;49.240;9.088;2023-03-21T03:57:21;9.50;99.90
18868;DHT22;9563;49.240;9.088;2023-03-21T03:59:50;9.50;99.90
18868;DHT22;9563;49.240;9.088;2023-03-21T04:02:17;9.50;99.90
18868;DHT22;9563;49.240;9.088;2023-03-21T04:04:46;9.40;99.90
18868;DHT22;9563;49.240;9.088;2023-03-21T04:07:17;9.30;99.90
18868;DHT22;9563;49.240;9.088;2023-03-21T04:09:44;9.20;99.90
18868;DHT22;9563;49.240;9.088;2023-03-21T04:12:12;9.20;99.90
18868;DHT22;9563;49.240;9.088;2023-03-21T04:14:39;9.20;99.90
18868;DHT22;9563;49.240;9.088;2023-03-21T04:17:06;9.20;99.90
18868;DHT22;9563;49.240;9.088;2023-03-21T04:19:33;9.20;99.90
18868;DHT22;9563;49.240;9.088;2023-03-21T04:22:00;9.20;99.90
18868;DHT22;9563;49.240;9.088;2023-03-21T04:24:27;9.20;99.90
18868;DHT22;9563;49.240;9.088;2023-03-21T04:26:57;9.20;99.90
18868;DHT22;9563;49.240;9.088;2023-03-21T04:29:26;9.20;99.90
18868;DHT22;9563;49.240;9.088;2023-03-21T04:31:54;9.20;99.90
18868;DHT22;9563;49.240;9.088;2023-03-21T04:34:20;9.10;99.90
18868;DHT22;9563;49.240;9.088;2023-03-21T04:36:48;9.00;99.90
18868;DHT22;9563;49.240;9.088;2023-03-21T04:39:16;9.00;99.90
18868;DHT22;9563;49.240;9.088;2023-03-21T04:41:44;9.00;99.90
18868;DHT22;9563;49.240;9.088;2023-03-21T04:44:12;9.00;99.90
18868;DHT22;9563;49.240;9.088;2023-03-21T04:46:41;9.00;99.90
18868;DHT22;9563;49.240;9.088;2023-03-21T04:49:08;9.10;99.90
18868;DHT22;9563;49.240;9.088;2023-03-21T04:51:36;9.10;99.90
18868;DHT22;9563;49.240;9.088;2023-03-21T04:54:03;9.10;99.90
18868;DHT22;9563;49.240;9.088;2023-03-21T04:56:31;9.20;99.90
18868;DHT22;9563;49.240;9.088;2023-03-21T04:58:59;9.20;99.90
18868;DHT22;9563;49.240;9.088;2023-03-21T05:01:27;9.20;99.90
18868;DHT22;9563;49.240;9.088;2023-03-21T05:03:56;9.20;99.90
18868;DHT22;9563;49.240;9.088;2023-03-21T05:06:23;9.20;99.90
18868;DHT22;9563;49.240;9.088;2023-03-21T05:08:50;9.20;99.90
18868;DHT22;9563;49.240;9.088;2023-03-21T05:11:17;9.10;99.90
18868;DHT22;9563;49.240;9.088;2023-03-21T05:13:44;9.00;99.90
18868;DHT22;9563;49.240;9.088;2023-03-21T05:16:11;9.00;99.90
18868;DHT22;9563;49.240;9.088;2023-03-21T05:18:38;9.00;99.90
18868;DHT22;9563;49.240;9.088;2023-03-21T05:21:07;8.90;99.90
18868;DHT22;9563;49.240;9.088;2023-03-21T05:23:35;8.80;99.90
18868;DHT22;9563;49.240;9.088;2023-03-21T05:26:04;8.80;99.90
18868;DHT22;9563;49.240;9.088;2023-03-21T05:28:32;8.80;99.90
18868;DHT22;9563;49.240;9.088;2023-03-21T05:31:01;8.80;99.90
18868;DHT22;9563;49.240;9.088;2023-03-21T05:33:28;8.90;99.90
18868;DHT22;9563;49.240;9.088;2023-03-21T05:35:55;8.90;99.90
18868;DHT22;9563;49.240;9.088;2023-03-21T05:38:23;8.90;99.90
18868;DHT22;9563;49.240;9.088;2023-03-21T05:40:53;9.00;99.90
18868;DHT22;9563;49.240;9.088;2023-03-21T05:43:20;9.00;99.90
18868;DHT22;9563;49.240;9.088;2023-03-21T05:45:47;9.00;99.90
18868;DHT22;9563;49.240;9.088;2023-03-21T05:48:13;9.00;99.90
18868;DHT22;9563;49.240;9.088;2023-03-21T05:50:40;9.00;99.90
18868;DHT22;9563;49.240;9.088;2023-03-21T05:53:07;9.00;99.90
18868;DHT22;9563;49.240;9.088;2023-03-21T05:55:36;9.00;99.90
18868;DHT22;9563;49.240;9.088;2023-03-21T05:58:03;9.10;99.90
18868;DHT22;9563;49.240;9.088;2023-03-21T06:00:30;9.10;99.90
18868;DHT22;9563;49.240;9.088;2023-03-21T06:02:57;9.20;99.90
18868;DHT22;9563;49.240;9.088;2023-03-21T06:05:24;9.20;99.90
18868;DHT22;9563;49.240;9.088;2023-03-21T06:07:51;9.20;99.90
18868;DHT22;9563;49.240;9.088;2023-03-21T06:10:18;9.30;99.90
18868;DHT22;9563;49.240;9.088;2023-03-21T06:12:47;9.40;99.90
18868;DHT22;9563;49.240;9.088;2023-03-21T06:15:14;9.50;99.90
18868;DHT22;9563;49.240;9.088;2023-03-21T06:17:41;9.50;99.90
18868;DHT22;9563;49.240;9.088;2023-03-21T06:20:09;9.50;99.90
18868;DHT22;9563;49.240;9.088;2023-03-21T06:22:36;9.50;99.90
18868;DHT22;9563;49.240;9.088;2023-03-21T06:25:04;9.60;99.90
18868;DHT22;9563;49.240;9.088;2023-03-21T06:27:32;9.60;99.90
18868;DHT22;9563;49.240;9.088;2023-03-21T06:30:00;9.70;99.90
18868;DHT22;9563;49.240;9.088;2023-03-21T06:32:27;9.70;99.90
18868;DHT22;9563;49.240;9.088;2023-03-21T06:34:54;9.80;99.90
18868;DHT22;9563;49.240;9.088;2023-03-21T06:37:21;9.90;99.90
18868;DHT22;9563;49.240;9.088;2023-03-21T06:39:48;10.00;99.90
18868;DHT22;9563;49.240;9.088;2023-03-21T06:42:15;10.10;99.90
18868;DHT22;9563;49.240;9.088;2023-03-21T06:44:42;10.20;99.90
18868;DHT22;9563;49.240;9.088;2023-03-21T06:47:10;10.30;99.90
18868;DHT22;9563;49.240;9.088;2023-03-21T06:49:37;10.30;99.90
18868;DHT22;9563;49.240;9.088;2023-03-21T06:52:05;10.40;99.90
18868;DHT22;9563;49.240;9.088;2023-03-21T06:54:32;10.40;99.90
18868;DHT22;9563;49.240;9.088;2023-03-21T06:56:59;10.30;99.90
18868;DHT22;9563;49.240;9.088;2023-03-21T06:59:26;10.30;99.90
18868;DHT22;9563;49.240;9.088;2023-03-21T07:01:52;10.40;99.90
18868;DHT22;9563;49.240;9.088;2023-03-21T07:04:21;10.40;99.90
18868;DHT22;9563;49.240;9.088;2023-03-21T07:06:48;10.70;99.90
18868;DHT22;9563;49.240;9.088;2023-03-21T07:09:15;10.90;99.90
18868;DHT22;9563;49.240;9.088;2023-03-21T07:11:43;11.20;99.90
18868;DHT22;9563;49.240;9.088;2023-03-21T07:14:10;11.40;99.90
18868;DHT22;9563;49.240;9.088;2023-03-21T07:16:37;11.60;99.90
18868;DHT22;9563;49.240;9.088;2023-03-21T07:19:04;11.90;99.90
18868;DHT22;9563;49.240;9.088;2023-03-21T07:21:33;12.10;99.90
18868;DHT22;9563;49.240;9.088;2023-03-21T07:24:00;12.30;99.90
18868;DHT22;9563;49.240;9.088;2023-03-21T07:26:27;12.50;99.90
18868;DHT22;9563;49.240;9.088;2023-03-21T07:28:54;12.60;99.90
18868;DHT22;9563;49.240;9.088;2023-03-21T07:31:22;12.80;99.90
18868;DHT22;9563;49.240;9.088;2023-03-21T07:33:51;13.10;99.90
18868;DHT22;9563;49.240;9.088;2023-03-21T07:36:18;13.50;99.90
18868;DHT22;9563;49.240;9.088;2023-03-21T07:38:47;13.60;99.90
18868;DHT22;9563;49.240;9.088;2023-03-21T07:41:14;13.80;99.90
18868;DHT22;9563;49.240;9.088;2023-03-21T07:43:41;14.20;99.90
18868;DHT22;9563;49.240;9.088;2023-03-21T07:46:07;14.40;99.90
18868;DHT22;9563;49.240;9.088;2023-03-21T07:48:35;14.50;99.90
18868;DHT22;9563;49.240;9.088;2023-03-21T07:51:02;14.50;99.90
18868;DHT22;9563;49.240;9.088;2023-03-21T07:53:30;14.60;99.90
18868;DHT22;9563;49.240;9.088;2023-03-21T07:55:59;14.70;99.90
18868;DHT22;9563;49.240;9.088;2023-03-21T07:58:26;14.90;99.90
18868;DHT22;9563;49.240;9.088;2023-03-21T08:00:53;15.00;99.90
18868;DHT22;9563;49.240;9.088;2023-03-21T08:03:21;14.90;99.90
18868;DHT22;9563;49.240;9.088;2023-03-21T08:05:48;14.80;99.90
18868;DHT22;9563;49.240;9.088;2023-03-21T08:08:15;14.80;99.90
18868;DHT22;9563;49.240;9.088;2023-03-21T08:10:42;14.80;99.90
18868;DHT22;9563;49.240;9.088;2023-03-21T08:13:11;14.90;99.90
18868;DHT22;9563;49.240;9.088;2023-03-21T08:15:38;15.30;99.90
18868;DHT22;9563;49.240;9.088;2023-03-21T08:18:06;15.60;99.90
18868;DHT22;9563;49.240;9.088;2023-03-21T08:20:33;15.70;99.90
18868;DHT22;9563;49.240;9.088;2023-03-21T08:23:00;15.90;99.90
18868;DHT22;9563;49.240;9.088;2023-03-21T08:25:27;16.00;99.90
18868;DHT22;9563;49.240;9.088;2023-03-21T08:27:55;15.80;99.90
18868;DHT22;9563;49.240;9.088;2023-03-21T08:30:25;15.80;99.90
18868;DHT22;9563;49.240;9.088;2023-03-21T08:32:55;16.00;99.90
18868;DHT22;9563;49.240;9.088;2023-03-21T08:35:24;16.00;99.90
18868;DHT22;9563;49.240;9.088;2023-03-21T08:37:51;16.30;99.90
18868;DHT22;9563;49.240;9.088;2023-03-21T08:40:18;15.80;99.90
18868;DHT22;9563;49.240;9.088;2023-03-21T08:42:46;16.30;99.90
18868;DHT22;9563;49.240;9.088;2023-03-21T08:45:14;16.60;99.90
18868;DHT22;9563;49.240;9.088;2023-03-21T08:47:42;16.50;99.90
18868;DHT22;9563;49.240;9.088;2023-03-21T08:50:12;16.70;99.90
18868;DHT22;9563;49.240;9.088;2023-03-21T08:52:40;16.70;99.90
18868;DHT22;9563;49.240;9.088;2023-03-21T08:55:08;16.90;99.90
18868;DHT22;9563;49.240;9.088;2023-03-21T08:57:35;16.70;99.90
18868;DHT22;9563;49.240;9.088;2023-03-21T09:00:03;16.90;99.90
18868;DHT22;9563;49.240;9.088;2023-03-21T09:02:36;16.90;99.90
18868;DHT22;9563;49.240;9.088;2023-03-21T09:05:05;16.60;99.90
18868;DHT22;9563;49.240;9.088;2023-03-21T09:07:32;16.60;99.90
18868;DHT22;9563;49.240;9.088;2023-03-21T09:10:00;17.00;99.90
18868;DHT22;9563;49.240;9.088;2023-03-21T09:12:27;17.30;99.90
18868;DHT22;9563;49.240;9.088;2023-03-21T09:14:54;17.60;99.90
18868;DHT22;9563;49.240;9.088;2023-03-21T09:17:21;17.60;99.90
18868;DHT22;9563;49.240;9.088;2023-03-21T09:19:48;17.00;98.40
18868;DHT22;9563;49.240;9.088;2023-03-21T09:22:16;16.40;99.60
18868;DHT22;9563;49.240;9.088;2023-03-21T09:24:46;16.20;99.90
18868;DHT22;9563;49.240;9.088;2023-03-21T09:27:13;16.00;98.90
18868;DHT22;9563;49.240;9.088;2023-03-21T09:29:42;15.80;99.90
18868;DHT22;9563;49.240;9.088;2023-03-21T09:32:09;15.50;99.90
18868;DHT22;9563;49.240;9.088;2023-03-21T09:34:38;15.80;99.90
18868;DHT22;9563;49.240;9.088;2023-03-21T09:37:05;15.90;99.90
18868;DHT22;9563;49.240;9.088;2023-03-21T09:39:36;16.00;99.90
18868;DHT22;9563;49.240;9.088;2023-03-21T09:42:12;16.00;99.90
18868;DHT22;9563;49.240;9.088;2023-03-21T09:44:52;15.80;99.50
18868;DHT22;9563;49.240;9.088;2023-03-21T09:47:24;16.10;99.90
18868;DHT22;9563;49.240;9.088;2023-03-21T09:49:57;16.10;99.90
18868;DHT22;9563;49.240;9.088;2023-03-21T09:52:29;15.90;99.90
18868;DHT22;9563;49.240;9.088;2023-03-21T09:55:01;15.80;99.90
18868;DHT22;9563;49.240;9.088;2023-03-21T09:57:32;15.70;99.90
18868;DHT22;9563;49.240;9.088;2023-03-21T10:00:03;15.70;99.90
18868;DHT22;9563;49.240;9.088;2023-03-21T10:02:38;15.60;99.90
18868;DHT22;9563;49.240;9.088;2023-03-21T10:05:12;15.90;99.90
18868;DHT22;9563;49.240;9.088;2023-03-21T10:07:45;15.90;99.90
18868;DHT22;9563;49.240;9.088;2023-03-21T10:10:18;15.80;99.90
18868;DHT22;9563;49.240;9.088;2023-03-21T10:12:48;15.70;99.90
18868;DHT22;9563;49.240;9.088;2023-03-21T10:15:19;15.70;99.90
18868;DHT22;9563;49.240;9.088;2023-03-21T10:17:50;15.90;99.90
18868;DHT22;9563;49.240;9.088;2023-03-21T10:20:21;16.10;99.90
18868;DHT22;9563;49.240;9.088;2023-03-21T10:22:49;16.20;99.90
18868;DHT22;9563;49.240;9.088;2023-03-21T10:25:21;16.50;99.90
18868;DHT22;9563;49.240;9.088;2023-03-21T10:27:50;16.50;99.90
18868;DHT22;9563;49.240;9.088;2023-03-21T10:30:25;16.50;99.90
18868;DHT22;9563;49.240;9.088;2023-03-21T10:32:53;16.50;99.90
18868;DHT22;9563;49.240;9.088;2023-03-21T10:35:21;16.30;99.90
18868;DHT22;9563;49.240;9.088;2023-03-21T10:37:48;16.40;99.90
18868;DHT22;9563;49.240;9.088;2023-03-21T10:40:18;16.30;99.90
18868;DHT22;9563;49.240;9.088;2023-03-21T10:42:45;16.20;99.90
18868;DHT22;9563;49.240;9.088;2023-03-21T10:45:16;16.00;99.90
18868;DHT22;9563;49.240;9.088;2023-03-21T10:47:46;16.00;99.90
18868;DHT22;9563;49.240;9.088;2023-03-21T10:50:16;15.90;99.90
18868;DHT22;9563;49.240;9.088;2023-03-21T10:52:46;15.70;99.90
18868;DHT22;9563;49.240;9.088;2023-03-21T10:55:25;15.90;99.90
18868;DHT22;9563;49.240;9.088;2023-03-21T10:57:56;15.70;99.90
18868;DHT22;9563;49.240;9.088;2023-03-21T11:00:27;15.70;99.90
18868;DHT22;9563;49.240;9.088;2023-03-21T11:02:56;15.60;99.90
18868;DHT22;9563;49.240;9.088;2023-03-21T11:05:25;15.40;99.90
18868;DHT22;9563;49.240;9.088;2023-03-21T11:07:58;15.30;99.90
18868;DHT22;9563;49.240;9.088;2023-03-21T11:10:29;15.40;99.90
18868;DHT22;9563;49.240;9.088;2023-03-21T11:12:59;15.40;99.90
18868;DHT22;9563;49.240;9.088;2023-03-21T11:15:30;15.10;99.90
18868;DHT22;9563;49.240;9.088;2023-03-21T11:17:57;15.20;99.90
18868;DHT22;9563;49.240;9.088;2023-03-21T11:20:24;14.80;99.90
18868;DHT22;9563;49.240;9.088;2023-03-21T11:22:54;14.80;99.90
18868;DHT22;9563;49.240;9.088;2023-03-21T11:25:26;14.80;99.90
18868;DHT22;9563;49.240;9.088;2023-03-21T11:27:55;14.70;99.90
18868;DHT22;9563;49.240;9.088;2023-03-21T11:30:25;14.80;99.90
18868;DHT22;9563;49.240;9.088;2023-03-21T11:32:54;15.00;99.90
18868;DHT22;9563;49.240;9.088;2023-03-21T11:35:24;14.80;99.90
18868;DHT22;9563;49.240;9.088;2023-03-21T11:37:52;14.90;99.90
18868;DHT22;9563;49.240;9.088;2023-03-21T11:40:21;15.00;99.90
18868;DHT22;9563;49.240;9.088;2023-03-21T11:42:51;15.00;99.90
18868;DHT22;9563;49.240;9.088;2023-03-21T11:45:22;15.10;99.90
18868;DHT22;9563;49.240;9.088;2023-03-21T11:47:52;15.10;99.90
18868;DHT22;9563;49.240;9.088;2023-03-21T11:50:26;15.00;99.90
18868;DHT22;9563;49.240;9.088;2023-03-21T11:53:09;15.10;99.90
18868;DHT22;9563;49.240;9.088;2023-03-21T11:55:45;15.20;99.90
18868;DHT22;9563;49.240;9.088;2023-03-21T11:58:29;15.00;99.90
18868;DHT22;9563;49.240;9.088;2023-03-21T12:01:04;15.10;99.90
18868;DHT22;9563;49.240;9.088;2023-03-21T12:03:54;15.20;99.90
18868;DHT22;9563;49.240;9.088;2023-03-21T12:06:28;15.20;99.90
18868;DHT22;9563;49.240;9.088;2023-03-21T12:09:07;15.30;99.90
18868;DHT22;9563;49.240;9.088;2023-03-21T12:11:44;15.40;99.90
18868;DHT22;9563;49.240;9.088;2023-03-21T12:14:21;15.50;99.90
18868;DHT22;9563;49.240;9.088;2023-03-21T12:17:12;15.50;99.90
18868;DHT22;9563;49.240;9.088;2023-03-21T12:19:59;15.50;99.90
18868;DHT22;9563;49.240;9.088;2023-03-21T12:22:38;15.50;99.90
18868;DHT22;9563;49.240;9.088;2023-03-21T12:25:11;15.60;99.90
18868;DHT22;9563;49.240;9.088;2023-03-21T12:27:46;15.60;99.90
18868;DHT22;9563;49.240;9.088;2023-03-21T12:30:22;15.50;99.90
18868;DHT22;9563;49.240;9.088;2023-03-21T12:33:07;15.50;99.90
18868;DHT22;9563;49.240;9.088;2023-03-21T12:35:57;15.50;99.90
18868;DHT22;9563;49.240;9.088;2023-03-21T12:38:34;15.40;99.90
18868;DHT22;9563;49.240;9.088;2023-03-21T12:41:21;15.50;99.90
18868;DHT22;9563;49.240;9.088;2023-03-21T12:43:52;15.50;99.90
18868;DHT22;9563;49.240;9.088;2023-03-21T12:46:22;15.60;99.90
18868;DHT22;9563;49.240;9.088;2023-03-21T12:48:57;15.40;99.90
18868;DHT22;9563;49.240;9.088;2023-03-21T12:51:28;15.60;99.90
18868;DHT22;9563;49.240;9.088;2023-03-21T12:54:07;15.60;99.90
18868;DHT22;9563;49.240;9.088;2023-03-21T12:56:41;15.60;99.90
18868;DHT22;9563;49.240;9.088;2023-03-21T12:59:20;15.60;99.90
18868;DHT22;9563;49.240;9.088;2023-03-21T13:01:51;15.60;99.90
18868;DHT22;9563;49.240;9.088;2023-03-21T13:04:31;15.60;99.90
18868;DHT22;9563;49.240;9.088;2023-03-21T13:07:02;15.70;99.90
18868;DHT22;9563;49.240;9.088;2023-03-21T13:09:34;15.70;99.90
18868;DHT22;9563;49.240;9.088;2023-03-21T13:12:07;15.70;99.90
18868;DHT22;9563;49.240;9.088;2023-03-21T13:14:43;15.70;99.90
18868;DHT22;9563;49.240;9.088;2023-03-21T13:17:17;15.70;99.90
18868;DHT22;9563;49.240;9.088;2023-03-21T13:19:54;15.70;99.90
18868;DHT22;9563;49.240;9.088;2023-03-21T13:22:26;15.60;99.90
18868;DHT22;9563;49.240;9.088;2023-03-21T13:24:57;15.70;99.90
18868;DHT22;9563;49.240;9.088;2023-03-21T13:27:27;15.80;99.90
18868;DHT22;9563;49.240;9.088;2023-03-21T13:29:58;15.80;99.90
18868;DHT22;9563;49.240;9.088;2023-03-21T13:32:28;15.80;99.90
18868;DHT22;9563;49.240;9.088;2023-03-21T13:34:58;15.70;99.90
18868;DHT22;9563;49.240;9.088;2023-03-21T13:37:29;15.80;99.90
18868;DHT22;9563;49.240;9.088;2023-03-21T13:40:00;15.80;99.90
18868;DHT22;9563;49.240;9.088;2023-03-21T13:42:34;15.80;99.90
18868;DHT22;9563;49.240;9.088;2023-03-21T13:45:06;15.70;99.90
18868;DHT22;9563;49.240;9.088;2023-03-21T13:47:40;15.80;99.90
18868;DHT22;9563;49.240;9.088;2023-03-21T13:50:29;15.80;99.90
18868;DHT22;9563;49.240;9.088;2023-03-21T13:53:29;15.80;99.90
18868;DHT22;9563;49.240;9.088;2023-03-21T13:56:00;15.70;99.90
18868;DHT22;9563;49.240;9.088;2023-03-21T13:58:35;15.70;99.90
18868;DHT22;9563;49.240;9.088;2023-03-21T14:01:25;15.60;99.90
18868;DHT22;9563;49.240;9.088;2023-03-21T14:04:14;15.60;99.90
18868;DHT22;9563;49.240;9.088;2023-03-21T14:06:48;15.50;99.90
18868;DHT22;9563;49.240;9.088;2023-03-21T14:09:20;15.20;99.90
18868;DHT22;9563;49.240;9.088;2023-03-21T14:11:50;14.90;99.90
18868;DHT22;9563;49.240;9.088;2023-03-21T14:14:19;14.80;99.90
18868;DHT22;9563;49.240;9.088;2023-03-21T14:16:46;14.90;99.90
18868;DHT22;9563;49.240;9.088;2023-03-21T14:19:13;14.80;99.90
18868;DHT22;9563;49.240;9.088;2023-03-21T14:21:48;14.90;99.90
18868;DHT22;9563;49.240;9.088;2023-03-21T14:24:19;15.00;99.90
18868;DHT22;9563;49.240;9.088;2023-03-21T14:26:47;15.10;99.90
18868;DHT22;9563;49.240;9.088;2023-03-21T14:29:19;15.20;99.90
18868;DHT22;9563;49.240;9.088;2023-03-21T14:31:47;15.30;99.90
18868;DHT22;9563;49.240;9.088;2023-03-21T14:34:14;15.40;99.90
18868;DHT22;9563;49.240;9.088;2023-03-21T14:36:43;15.40;99.90
18868;DHT22;9563;49.240;9.088;2023-03-21T14:39:16;15.40;99.90
18868;DHT22;9563;49.240;9.088;2023-03-21T14:41:46;15.40;99.90
18868;DHT22;9563;49.240;9.088;2023-03-21T14:44:17;15.50;99.90
18868;DHT22;9563;49.240;9.088;2023-03-21T14:46:49;15.50;99.90
18868;DHT22;9563;49.240;9.088;2023-03-21T14:49:23;15.60;99.90
18868;DHT22;9563;49.240;9.088;2023-03-21T14:51:52;15.50;99.90
18868;DHT22;9563;49.240;9.088;2023-03-21T14:54:21;15.50;99.90
18868;DHT22;9563;49.240;9.088;2023-03-21T14:56:52;15.50;99.90
18868;DHT22;9563;49.240;9.088;2023-03-21T14:59:22;15.40;99.90
18868;DHT22;9563;49.240;9.088;2023-03-21T15:01:51;15.40;99.90
18868;DHT22;9563;49.240;9.088;2023-03-21T15:04:19;15.40;99.90
18868;DHT22;9563;49.240;9.088;2023-03-21T15:06:49;15.30;99.90
18868;DHT22;9563;49.240;9.088;2023-03-21T15:09:17;15.30;99.90
18868;DHT22;9563;49.240;9.088;2023-03-21T15:11:49;15.20;99.90
18868;DHT22;9563;49.240;9.088;2023-03-21T15:14:20;15.20;99.90
18868;DHT22;9563;49.240;9.088;2023-03-21T15:16:50;15.20;99.90
18868;DHT22;9563;49.240;9.088;2023-03-21T15:19:23;15.20;99.90
18868;DHT22;9563;49.240;9.088;2023-03-21T15:21:55;15.20;99.90
18868;DHT22;9563;49.240;9.088;2023-03-21T15:24:25;15.30;99.90
18868;DHT22;9563;49.240;9.088;2023-03-21T15:27:01;15.30;99.90
18868;DHT22;9563;49.240;9.088;2023-03-21T15:29:29;15.30;99.90
18868;DHT22;9563;49.240;9.088;2023-03-21T15:31:56;15.30;99.90
18868;DHT22;9563;49.240;9.088;2023-03-21T15:34:26;15.40;99.90
18868;DHT22;9563;49.240;9.088;2023-03-21T15:36:56;15.40;99.90
18868;DHT22;9563;49.240;9.088;2023-03-21T15:39:23;15.40;99.90
18868;DHT22;9563;49.240;9.088;2023-03-21T15:42:27;15.30;99.90
18868;DHT22;9563;49.240;9.088;2023-03-21T15:44:56;15.30;99.90
18868;DHT22;9563;49.240;9.088;2023-03-21T15:47:38;15.20;99.90
18868;DHT22;9563;49.240;9.088;2023-03-21T15:50:08;15.10;99.90
18868;DHT22;9563;49.240;9.088;2023-03-21T15:52:36;15.10;99.90
18868;DHT22;9563;49.240;9.088;2023-03-21T15:55:16;15.10;99.90
18868;DHT22;9563;49.240;9.088;2023-03-21T15:57:53;15.00;99.90
18868;DHT22;9563;49.240;9.088;2023-03-21T16:00:24;15.00;99.90
18868;DHT22;9563;49.240;9.088;2023-03-21T16:02:57;15.00;99.90
18868;DHT22;9563;49.240;9.088;2023-03-21T16:05:26;14.90;99.90
18868;DHT22;9563;49.240;9.088;2023-03-21T16:07:57;14.90;99.90
18868;DHT22;9563;49.240;9.088;2023-03-21T16:10:32;14.80;99.90
18868;DHT22;9563;49.240;9.088;2023-03-21T16:13:00;14.70;99.90
18868;DHT22;9563;49.240;9.088;2023-03-21T16:15:27;14.60;99.90
18868;DHT22;9563;49.240;9.088;2023-03-21T16:17:55;14.60;99.90